createdAt,value
2023-04-30T00:01:32.537Z,101336.63
2023-04-30T00:03:59.354Z,101335.31
2023-04-30T00:06:28.213Z,101335.84
2023-04-30T00:08:55.654Z,101324.72
2023-04-30T00:11:22.531Z,101338.09
2023-04-30T00:13:49.291Z,101332.53
2023-04-30T00:16:16.031Z,101340.03
2023-04-30T00:18:42.700Z,101333.13
2023-04-30T00:21:09.717Z,101325.97
2023-04-30T00:23:36.358Z,101324.31
2023-04-30T00:26:03.000Z,101331.50
2023-04-30T00:28:29.805Z,101332.13
2023-04-30T00:30:56.629Z,101330.47
2023-04-30T00:33:24.509Z,101330.47
2023-04-30T00:35:51.236Z,101326.56
2023-04-30T00:38:17.945Z,101336.03
2023-04-30T00:40:44.955Z,101335.19
2023-04-30T00:43:11.593Z,101333.56
2023-04-30T00:45:38.383Z,101336.66
2023-04-30T00:48:05.316Z,101331.91
2023-04-30T00:50:32.059Z,101335.03
2023-04-30T00:52:59.743Z,101331.09
2023-04-30T00:55:26.985Z,101337.25
2023-04-30T00:57:54.873Z,101337.81
2023-04-30T01:00:22.323Z,101338.91
2023-04-30T01:02:49.856Z,101328.94
2023-04-30T01:05:16.708Z,101330.09
2023-04-30T01:07:46.249Z,101330.09
2023-04-30T01:10:14.425Z,101324.53
2023-04-30T01:12:50.074Z,101321.22
2023-04-30T01:15:28.304Z,101314.31
2023-04-30T01:18:01.124Z,101319.59
2023-04-30T01:20:29.710Z,101321.84
2023-04-30T01:23:32.262Z,101326.56
2023-04-30T01:26:15.856Z,101330.16
2023-04-30T01:28:47.493Z,101321.84
2023-04-30T01:31:19.570Z,101324.09
2023-04-30T01:33:46.586Z,101329.66
2023-04-30T01:36:13.240Z,101328.00
2023-04-30T01:39:06.761Z,101323.88
2023-04-30T01:41:43.368Z,101318.34
2023-04-30T01:44:34.424Z,101323.59
2023-04-30T01:47:21.530Z,101319.66
2023-04-30T01:50:04.633Z,101324.72
2023-04-30T01:52:41.159Z,101323.06
2023-04-30T01:55:21.363Z,101317.84
2023-04-30T01:58:03.045Z,101325.66
2023-04-30T02:00:33.145Z,101324.50
2023-04-30T02:03:00.331Z,101327.00
2023-04-30T02:05:27.546Z,101332.00
2023-04-30T02:07:55.899Z,101329.34
2023-04-30T02:10:26.728Z,101331.50
2023-04-30T02:12:53.669Z,101337.50
2023-04-30T02:15:20.527Z,101334.78
2023-04-30T02:17:47.361Z,101336.56
2023-04-30T02:20:14.494Z,101335.44
2023-04-30T02:22:41.463Z,101340.34
2023-04-30T02:25:08.877Z,101337.06
2023-04-30T02:27:35.652Z,101338.28
2023-04-30T02:30:02.955Z,101335.50
2023-04-30T02:32:29.827Z,101331.91
2023-04-30T02:34:56.997Z,101336.66
2023-04-30T02:37:24.192Z,101327.78
2023-04-30T02:39:52.089Z,101326.16
2023-04-30T02:42:18.999Z,101321.72
2023-04-30T02:44:45.781Z,101319.78
2023-04-30T02:47:12.429Z,101310.94
2023-04-30T02:49:40.058Z,101322.84
2023-04-30T02:52:09.563Z,101314.00
2023-04-30T02:54:36.829Z,101313.41
2023-04-30T02:57:03.976Z,101306.81
2023-04-30T02:59:33.590Z,101302.91
2023-04-30T03:02:00.525Z,101304.34
2023-04-30T03:04:27.237Z,101299.63
2023-04-30T03:06:54.065Z,101299.63
2023-04-30T03:09:21.370Z,101304.34
2023-04-30T03:11:48.377Z,101295.19
2023-04-30T03:14:15.136Z,101300.25
2023-04-30T03:16:41.787Z,101306.63
2023-04-30T03:19:08.548Z,101312.19
2023-04-30T03:21:35.236Z,101312.78
2023-04-30T03:24:02.093Z,101316.91
2023-04-30T03:26:28.945Z,101314.22
2023-04-30T03:28:55.913Z,101325.84
2023-04-30T03:31:23.564Z,101315.84
2023-04-30T03:33:50.358Z,101318.13
2023-04-30T03:36:17.191Z,101323.69
2023-04-30T03:38:43.979Z,101311.75
2023-04-30T03:41:11.708Z,101313.19
2023-04-30T03:43:38.412Z,101313.19
2023-04-30T03:46:05.259Z,101313.19
2023-04-30T03:48:32.347Z,101317.91
2023-04-30T03:50:59.018Z,101313.19
2023-04-30T03:53:28.478Z,101318.72
2023-04-30T03:55:55.251Z,101318.22
2023-04-30T03:58:22.502Z,101313.78
2023-04-30T04:00:49.675Z,101310.81
2023-04-30T04:03:16.903Z,101319.66
2023-04-30T04:05:44.455Z,101309.69
2023-04-30T04:08:11.844Z,101317.50
2023-04-30T04:10:40.229Z,101315.22
2023-04-30T04:13:08.458Z,101320.56
2023-04-30T04:15:35.843Z,101324.16
2023-04-30T04:18:03.503Z,101323.66
2023-04-30T04:20:30.376Z,101321.19
2023-04-30T04:22:57.377Z,101317.88
2023-04-30T04:25:25.222Z,101320.06
2023-04-30T04:27:52.511Z,101313.16
2023-04-30T04:30:19.888Z,101320.66
2023-04-30T04:32:50.809Z,101317.88
2023-04-30T04:35:21.046Z,101320.16
2023-04-30T04:37:48.562Z,101318.50
2023-04-30T04:40:15.487Z,101320.16
2023-04-30T04:42:42.306Z,101332.88
2023-04-30T04:45:09.979Z,101331.25
2023-04-30T04:47:37.811Z,101334.31
2023-04-30T04:50:04.782Z,101334.31
2023-04-30T04:52:31.565Z,101335.16
2023-04-30T04:54:58.656Z,101340.19
2023-04-30T04:57:25.814Z,101340.19
2023-04-30T04:59:53.553Z,101341.81
2023-04-30T05:02:21.404Z,101346.84
2023-04-30T05:04:50.481Z,101348.53
2023-04-30T05:07:18.670Z,101344.91
2023-04-30T05:09:47.046Z,101342.97
2023-04-30T05:12:14.682Z,101350.16
2023-04-30T05:14:41.515Z,101355.50
2023-04-30T05:17:08.796Z,101352.41
2023-04-30T05:19:35.702Z,101345.19
2023-04-30T05:22:02.460Z,101344.69
2023-04-30T05:24:29.873Z,101351.91
2023-04-30T05:26:56.652Z,101341.91
2023-04-30T05:29:23.519Z,101347.47
2023-04-30T05:31:50.456Z,101343.56
2023-04-30T05:34:17.161Z,101353.00
2023-04-30T05:36:44.442Z,101346.63
2023-04-30T05:39:11.388Z,101353.00
2023-04-30T05:41:38.388Z,101358.56
2023-04-30T05:44:05.469Z,101356.91
2023-04-30T05:46:32.576Z,101363.59
2023-04-30T05:48:59.271Z,101358.06
2023-04-30T05:51:26.012Z,101364.94
2023-04-30T05:53:52.684Z,101349.13
2023-04-30T05:56:19.547Z,101350.75
2023-04-30T05:58:46.462Z,101352.41
2023-04-30T06:01:14.485Z,101351.28
2023-04-30T06:03:41.183Z,101342.97
2023-04-30T06:06:07.829Z,101345.44
2023-04-30T06:08:34.567Z,101353.47
2023-04-30T06:11:03.827Z,101343.47
2023-04-30T06:13:31.871Z,101350.38
2023-04-30T06:15:58.840Z,101350.38
2023-04-30T06:18:25.646Z,101350.06
2023-04-30T06:20:52.476Z,101354.47
2023-04-30T06:23:19.260Z,101355.03
2023-04-30T06:25:46.227Z,101353.03
2023-04-30T06:28:12.866Z,101357.16
2023-04-30T06:30:41.342Z,101361.09
2023-04-30T06:33:08.632Z,101357.16
2023-04-30T06:35:35.608Z,101356.38
2023-04-30T06:38:02.365Z,101357.16
2023-04-30T06:40:29.078Z,101351.59
2023-04-30T06:42:55.844Z,101360.47
2023-04-30T06:45:22.814Z,101359.31
2023-04-30T06:47:49.660Z,101354.94
2023-04-30T06:50:16.472Z,101349.38
2023-04-30T06:52:43.727Z,101354.94
2023-04-30T06:55:11.524Z,101357.38
2023-04-30T06:57:38.441Z,101366.84
2023-04-30T07:00:07.103Z,101363.75
2023-04-30T07:02:33.893Z,101359.03
2023-04-30T07:05:00.682Z,101363.47
2023-04-30T07:07:28.078Z,101360.69
2023-04-30T07:09:55.150Z,101359.88
2023-04-30T07:12:22.609Z,101357.59
2023-04-30T07:14:49.471Z,101354.81
2023-04-30T07:17:16.279Z,101362.31
2023-04-30T07:19:43.641Z,101349.78
2023-04-30T07:22:10.368Z,101349.78
2023-04-30T07:24:37.119Z,101352.56
2023-04-30T07:27:04.397Z,101354.22
2023-04-30T07:29:31.857Z,101357.00
2023-04-30T07:31:58.694Z,101349.50
2023-04-30T07:34:25.597Z,101358.66
2023-04-30T07:36:52.310Z,101351.44
2023-04-30T07:39:19.005Z,101350.81
2023-04-30T07:41:46.095Z,101342.78
2023-04-30T07:44:13.097Z,101353.59
2023-04-30T07:46:40.146Z,101352.47
2023-04-30T07:49:07.131Z,101352.47
2023-04-30T07:51:34.064Z,101352.47
2023-04-30T07:54:01.069Z,101358.84
2023-04-30T07:56:27.913Z,101352.16
2023-04-30T07:58:54.551Z,101354.66
2023-04-30T08:01:21.490Z,101357.44
2023-04-30T08:03:48.379Z,101357.72
2023-04-30T08:06:15.235Z,101361.81
2023-04-30T08:08:42.045Z,101368.22
2023-04-30T08:11:08.909Z,101367.38
2023-04-30T08:13:36.898Z,101354.34
2023-04-30T08:16:03.709Z,101366.25
2023-04-30T08:18:32.250Z,101355.16
2023-04-30T08:21:00.776Z,101363.50
2023-04-30T08:23:28.100Z,101362.34
2023-04-30T08:25:55.247Z,101360.72
2023-04-30T08:28:22.169Z,101352.88
2023-04-30T08:30:48.968Z,101357.63
2023-04-30T08:33:15.977Z,101352.88
2023-04-30T08:35:43.182Z,101348.16
2023-04-30T08:38:10.380Z,101356.16
2023-04-30T08:40:50.111Z,101349.00
2023-04-30T08:43:18.817Z,101350.63
2023-04-30T08:45:45.830Z,101338.72
2023-04-30T08:48:16.514Z,101338.41
2023-04-30T08:50:43.398Z,101341.16
2023-04-30T08:53:11.639Z,101342.81
2023-04-30T08:55:40.358Z,101348.38
2023-04-30T08:58:08.684Z,101337.28
2023-04-30T09:00:37.778Z,101338.09
2023-04-30T09:03:05.789Z,101331.72
2023-04-30T09:05:32.746Z,101337.78
2023-04-30T09:08:03.532Z,101340.56
2023-04-30T09:10:34.804Z,101342.22
2023-04-30T09:13:03.758Z,101332.72
2023-04-30T09:15:32.298Z,101333.88
2023-04-30T09:18:11.787Z,101336.66
2023-04-30T09:20:53.436Z,101330.28
2023-04-30T09:23:20.322Z,101333.56
2023-04-30T09:25:47.138Z,101327.72
2023-04-30T09:28:14.414Z,101332.94
2023-04-30T09:30:42.787Z,101332.13
2023-04-30T09:33:11.874Z,101335.44
2023-04-30T09:35:41.814Z,101328.22
2023-04-30T09:38:21.920Z,101325.44
2023-04-30T09:40:49.326Z,101329.88
2023-04-30T09:43:16.207Z,101323.69
2023-04-30T09:45:47.487Z,101325.34
2023-04-30T09:48:32.329Z,101325.34
2023-04-30T09:51:03.480Z,101326.16
2023-04-30T09:53:30.938Z,101320.59
2023-04-30T09:55:59.165Z,101321.44
2023-04-30T09:58:28.254Z,101321.94
2023-04-30T10:00:59.254Z,101321.94
2023-04-30T10:03:26.569Z,101316.88
2023-04-30T10:05:53.637Z,101316.38
2023-04-30T10:08:52.937Z,101319.38
2023-04-30T10:11:21.547Z,101314.66
2023-04-30T10:14:03.056Z,101312.66
2023-04-30T10:16:32.890Z,101304.03
2023-04-30T10:19:03.498Z,101294.59
2023-04-30T10:21:31.630Z,101296.22
2023-04-30T10:23:59.448Z,101297.38
2023-04-30T10:26:26.923Z,101295.91
2023-04-30T10:28:55.473Z,101293.97
2023-04-30T10:31:23.416Z,101292.81
2023-04-30T10:33:58.989Z,101287.25
2023-04-30T10:36:39.453Z,101286.44
2023-04-30T10:39:06.541Z,101283.38
2023-04-30T10:41:33.387Z,101284.19
2023-04-30T10:44:02.494Z,101285.53
2023-04-30T10:46:29.512Z,101273.25
2023-04-30T10:48:56.702Z,101272.47
2023-04-30T10:51:23.622Z,101274.09
2023-04-30T10:53:52.129Z,101271.00
2023-04-30T10:56:32.416Z,101269.56
2023-04-30T10:59:03.815Z,101261.53
2023-04-30T11:01:31.327Z,101269.56
2023-04-30T11:04:06.629Z,101265.34
2023-04-30T11:07:07.437Z,101265.34
2023-04-30T11:09:37.625Z,101249.00
2023-04-30T11:12:10.405Z,101243.59
2023-04-30T11:14:42.207Z,101245.25
2023-04-30T11:17:11.174Z,101241.34
2023-04-30T11:19:47.735Z,101238.56
2023-04-30T11:22:18.558Z,101237.44
2023-04-30T11:25:05.650Z,101234.34
2023-04-30T11:27:34.287Z,101229.63
2023-04-30T11:30:02.538Z,101224.06
2023-04-30T11:32:34.888Z,101230.41
2023-04-30T11:35:04.304Z,101226.19
2023-04-30T11:37:45.939Z,101217.84
2023-04-30T11:40:14.614Z,101217.84
2023-04-30T11:43:05.735Z,101219.50
2023-04-30T11:45:32.602Z,101216.59
2023-04-30T11:47:59.483Z,101207.75
2023-04-30T11:50:33.990Z,101209.41
2023-04-30T11:53:05.537Z,101207.13
2023-04-30T11:55:32.693Z,101203.22
2023-04-30T11:58:00.437Z,101206.50
2023-04-30T12:00:29.395Z,101208.94
2023-04-30T12:02:57.546Z,101197.84
2023-04-30T12:05:26.849Z,101203.63
2023-04-30T12:07:59.555Z,101192.50
2023-04-30T12:10:26.954Z,101191.16
2023-04-30T12:12:54.720Z,101198.59
2023-04-30T12:15:26.896Z,101200.56
2023-04-30T12:17:56.628Z,101183.53
2023-04-30T12:20:24.841Z,101182.41
2023-04-30T12:22:51.970Z,101175.69
2023-04-30T12:25:20.649Z,101177.34
2023-04-30T12:27:52.023Z,101168.38
2023-04-30T12:30:29.368Z,101175.59
2023-04-30T12:32:59.002Z,101177.22
2023-04-30T12:35:28.860Z,101174.13
2023-04-30T12:38:04.692Z,101176.59
2023-04-30T12:40:32.160Z,101174.34
2023-04-30T12:43:07.820Z,101164.84
2023-04-30T12:45:48.212Z,101165.66
2023-04-30T12:48:16.194Z,101164.19
2023-04-30T12:50:48.107Z,101155.56
2023-04-30T12:53:15.317Z,101153.56
2023-04-30T12:55:42.259Z,101148.00
2023-04-30T12:58:15.154Z,101146.88
2023-04-30T13:00:51.761Z,101142.97
2023-04-30T13:03:20.890Z,101140.69
2023-04-30T13:05:50.198Z,101151.81
2023-04-30T13:08:18.208Z,101147.91
2023-04-30T13:10:48.745Z,101128.94
2023-04-30T13:13:17.076Z,101139.41
2023-04-30T13:15:44.253Z,101135.50
2023-04-30T13:18:12.114Z,101124.38
2023-04-30T13:20:39.328Z,101127.66
2023-04-30T13:23:06.710Z,101122.09
2023-04-30T13:25:34.765Z,101125.38
2023-04-30T13:28:01.774Z,101118.19
2023-04-30T13:30:29.055Z,101128.63
2023-04-30T13:32:55.815Z,101119.50
2023-04-30T13:35:22.909Z,101114.75
2023-04-30T13:37:49.815Z,101112.47
2023-04-30T13:40:16.464Z,101112.16
2023-04-30T13:42:43.335Z,101110.53
2023-04-30T13:45:10.750Z,101109.53
2023-04-30T13:47:38.337Z,101112.34
2023-04-30T13:50:06.039Z,101098.91
2023-04-30T13:52:33.075Z,101094.19
2023-04-30T13:55:00.316Z,101087.16
2023-04-30T13:57:30.083Z,101089.63
2023-04-30T13:59:57.142Z,101097.63
2023-04-30T14:02:24.284Z,101090.94
2023-04-30T14:05:02.513Z,101088.16
2023-04-30T14:07:32.764Z,101088.97
2023-04-30T14:09:59.846Z,101085.88
2023-04-30T14:12:26.754Z,101083.28
2023-04-30T14:14:53.476Z,101077.38
2023-04-30T14:17:20.616Z,101083.75
2023-04-30T14:19:47.432Z,101081.50
2023-04-30T14:22:14.376Z,101078.38
2023-04-30T14:24:41.222Z,101073.00
2023-04-30T14:27:07.951Z,101072.16
2023-04-30T14:29:34.703Z,101069.88
2023-04-30T14:32:02.028Z,101058.75
2023-04-30T14:34:29.336Z,101058.09
2023-04-30T14:36:59.390Z,101065.97
2023-04-30T14:39:26.831Z,101065.81
2023-04-30T14:41:53.795Z,101060.72
2023-04-30T14:44:21.524Z,101061.22
2023-04-30T14:46:48.345Z,101045.66
2023-04-30T14:49:16.949Z,101046.97
2023-04-30T14:51:43.693Z,101036.34
2023-04-30T14:54:10.882Z,101037.16
2023-04-30T14:56:37.569Z,101034.91
2023-04-30T14:59:04.459Z,101027.50
2023-04-30T15:01:31.293Z,101030.28
2023-04-30T15:03:58.032Z,101018.50
2023-04-30T15:06:24.744Z,101024.09
2023-04-30T15:08:51.529Z,101022.28
2023-04-30T15:11:18.310Z,101020.34
2023-04-30T15:13:45.881Z,101020.00
2023-04-30T15:16:13.139Z,101013.78
2023-04-30T15:18:40.556Z,101021.31
2023-04-30T15:21:07.282Z,101013.63
2023-04-30T15:23:34.208Z,101012.50
2023-04-30T15:26:04.487Z,101014.47
2023-04-30T15:28:32.861Z,101002.19
2023-04-30T15:31:03.305Z,101001.84
2023-04-30T15:33:31.235Z,101000.22
2023-04-30T15:35:58.843Z,100990.06
2023-04-30T15:38:25.844Z,100999.53
2023-04-30T15:40:52.748Z,100991.72
2023-04-30T15:43:20.462Z,100986.63
2023-04-30T15:45:48.356Z,100986.13
2023-04-30T15:48:15.379Z,100978.63
2023-04-30T15:50:42.147Z,100984.97
2023-04-30T15:53:09.334Z,100980.56
2023-04-30T15:55:36.924Z,100971.88
2023-04-30T15:58:04.427Z,100985.47
2023-04-30T16:00:31.215Z,100982.19
2023-04-30T16:02:58.152Z,100982.19
2023-04-30T16:05:25.124Z,100978.75
2023-04-30T16:07:52.355Z,100981.53
2023-04-30T16:10:20.022Z,100977.63
2023-04-30T16:12:46.915Z,100969.91
2023-04-30T16:15:13.687Z,100987.09
2023-04-30T16:17:41.161Z,100974.34
2023-04-30T16:20:08.681Z,100975.47
2023-04-30T16:22:35.591Z,100978.25
2023-04-30T16:25:02.417Z,100976.63
2023-04-30T16:27:29.588Z,100971.88
2023-04-30T16:29:56.582Z,100967.13
2023-04-30T16:32:23.752Z,100964.34
2023-04-30T16:34:51.052Z,100960.72
2023-04-30T16:37:17.802Z,100955.50
2023-04-30T16:39:44.496Z,100951.25
2023-04-30T16:42:11.487Z,100954.34
2023-04-30T16:44:38.237Z,100946.50
2023-04-30T16:47:05.024Z,100948.78
2023-04-30T16:49:31.733Z,100940.09
2023-04-30T16:51:58.457Z,100943.19
2023-04-30T16:54:25.239Z,100940.41
2023-04-30T16:56:51.904Z,100941.59
2023-04-30T16:59:18.629Z,100949.28
2023-04-30T17:01:46.408Z,100952.88
2023-04-30T17:04:14.263Z,100944.19
2023-04-30T17:06:41.615Z,100928.63
2023-04-30T17:09:08.717Z,100928.31
2023-04-30T17:11:35.740Z,100932.22
2023-04-30T17:14:02.624Z,100931.41
2023-04-30T17:16:29.375Z,100929.78
2023-04-30T17:18:56.189Z,100929.78
2023-04-30T17:21:22.970Z,100941.75
2023-04-30T17:23:49.772Z,100928.16
2023-04-30T17:26:18.203Z,100928.97
2023-04-30T17:28:44.879Z,100923.41
2023-04-30T17:31:11.917Z,100918.13
2023-04-30T17:33:38.654Z,100922.56
2023-04-30T17:36:05.790Z,100917.00
2023-04-30T17:38:32.460Z,100921.44
2023-04-30T17:40:59.308Z,100917.00
2023-04-30T17:43:26.164Z,100924.53
2023-04-30T17:45:53.484Z,100927.31
2023-04-30T17:48:20.445Z,100920.94
2023-04-30T17:50:47.337Z,100924.06
2023-04-30T17:53:14.333Z,100917.66
2023-04-30T17:55:41.456Z,100924.38
2023-04-30T17:58:10.304Z,100919.97
2023-04-30T18:00:43.276Z,100923.88
2023-04-30T18:03:10.771Z,100923.22
2023-04-30T18:05:39.219Z,100919.97
2023-04-30T18:08:06.675Z,100917.84
2023-04-30T18:10:33.701Z,100915.06
2023-04-30T18:13:00.911Z,100914.22
2023-04-30T18:15:28.020Z,100909.00
2023-04-30T18:17:55.240Z,100913.41
2023-04-30T18:20:22.344Z,100910.63
2023-04-30T18:22:49.060Z,100909.31
2023-04-30T18:25:17.341Z,100911.13
2023-04-30T18:27:44.644Z,100913.34
2023-04-30T18:30:12.792Z,100908.50
2023-04-30T18:32:41.698Z,100914.72
2023-04-30T18:35:09.203Z,100912.66
2023-04-30T18:37:36.100Z,100908.13
2023-04-30T18:40:04.093Z,100910.44
2023-04-30T18:42:30.964Z,100904.19
2023-04-30T18:44:57.913Z,100910.59
2023-04-30T18:47:24.837Z,100908.47
2023-04-30T18:49:51.763Z,100906.84
2023-04-30T18:52:18.548Z,100909.94
2023-04-30T18:54:45.310Z,100913.91
2023-04-30T18:57:16.240Z,100906.69
2023-04-30T18:59:43.226Z,100910.59
2023-04-30T19:02:11.046Z,100906.53
2023-04-30T19:04:38.058Z,100908.16
2023-04-30T19:07:05.012Z,100907.34
2023-04-30T19:09:35.674Z,100907.66
2023-04-30T19:12:03.782Z,100912.09
2023-04-30T19:14:30.974Z,100913.22
2023-04-30T19:16:57.795Z,100915.53
2023-04-30T19:19:24.514Z,100908.81
2023-04-30T19:21:51.269Z,100915.88
2023-04-30T19:24:18.161Z,100912.75
2023-04-30T19:26:45.005Z,100920.63
2023-04-30T19:29:11.795Z,100928.97
2023-04-30T19:31:38.756Z,100924.53
2023-04-30T19:34:05.829Z,100920.63
2023-04-30T19:36:32.705Z,100928.50
2023-04-30T19:38:59.496Z,100933.25
2023-04-30T19:41:27.216Z,100927.66
2023-04-30T19:43:54.011Z,100928.50
2023-04-30T19:46:21.147Z,100923.25
2023-04-30T19:48:47.988Z,100932.41
2023-04-30T19:51:14.752Z,100927.47
2023-04-30T19:53:41.555Z,100925.19
2023-04-30T19:56:08.677Z,100931.38
2023-04-30T19:58:35.688Z,100926.66
2023-04-30T20:01:03.156Z,100933.03
2023-04-30T20:03:29.889Z,100931.38
2023-04-30T20:05:56.887Z,100925.81
2023-04-30T20:08:23.760Z,100933.03
2023-04-30T20:10:50.584Z,100931.38
2023-04-30T20:13:17.864Z,100925.81
2023-04-30T20:15:44.668Z,100927.81
2023-04-30T20:18:12.644Z,100935.34
2023-04-30T20:20:39.545Z,100930.59
2023-04-30T20:23:14.988Z,100927.00
2023-04-30T20:25:45.928Z,100931.72
2023-04-30T20:28:14.489Z,100929.78
2023-04-30T20:30:45.146Z,100932.03
2023-04-30T20:33:13.501Z,100939.25
2023-04-30T20:35:41.793Z,100929.78
2023-04-30T20:38:09.378Z,100926.81
2023-04-30T20:40:39.993Z,100930.44
2023-04-30T20:43:11.838Z,100926.47
2023-04-30T20:45:39.725Z,100920.91
2023-04-30T20:48:08.823Z,100920.13
2023-04-30T20:50:36.696Z,100924.84
2023-04-30T20:53:03.557Z,100923.22
2023-04-30T20:55:30.975Z,100920.44
2023-04-30T20:57:57.793Z,100923.22
2023-04-30T21:00:24.483Z,100921.25
2023-04-30T21:02:53.901Z,100916.81
2023-04-30T21:05:20.922Z,100916.00
2023-04-30T21:07:47.847Z,100917.16
2023-04-30T21:10:14.689Z,100907.16
2023-04-30T21:12:41.978Z,100910.44
2023-04-30T21:15:09.694Z,100908.16
2023-04-30T21:17:36.703Z,100902.94
2023-04-30T21:20:04.260Z,100904.56
2023-04-30T21:22:31.874Z,100899.00
2023-04-30T21:24:58.817Z,100901.44
2023-04-30T21:27:25.777Z,100893.72
2023-04-30T21:29:52.725Z,100893.44
2023-04-30T21:32:19.600Z,100897.34
2023-04-30T21:34:46.323Z,100894.56
2023-04-30T21:37:15.701Z,100894.88
2023-04-30T21:39:43.972Z,100891.28
2023-04-30T21:42:10.919Z,100884.56
2023-04-30T21:44:37.621Z,100887.03
2023-04-30T21:47:04.305Z,100883.75
2023-04-30T21:49:31.391Z,100877.34
2023-04-30T21:51:58.132Z,100878.00
2023-04-30T21:54:25.134Z,100885.22
2023-04-30T21:56:51.815Z,100880.50
2023-04-30T21:59:18.567Z,100873.44
2023-04-30T22:01:45.936Z,100873.75
2023-04-30T22:04:12.742Z,100870.16
2023-04-30T22:06:40.484Z,100873.44
2023-04-30T22:09:07.561Z,100874.56
2023-04-30T22:11:34.330Z,100866.22
2023-04-30T22:14:01.312Z,100871.78
2023-04-30T22:16:28.225Z,100871.78
2023-04-30T22:18:58.564Z,100859.84
2023-04-30T22:21:25.860Z,100860.66
2023-04-30T22:23:52.596Z,100856.56
2023-04-30T22:26:19.376Z,100863.44
2023-04-30T22:28:46.029Z,100864.25
2023-04-30T22:31:13.019Z,100863.09
2023-04-30T22:33:40.043Z,100861.78
2023-04-30T22:36:07.290Z,100861.31
2023-04-30T22:38:35.354Z,100854.25
2023-04-30T22:41:03.843Z,100855.75
2023-04-30T22:43:31.130Z,100856.56
2023-04-30T22:45:59.069Z,100859.84
2023-04-30T22:48:27.675Z,100859.00
2023-04-30T22:50:55.606Z,100851.81
2023-04-30T22:53:22.840Z,100851.81
2023-04-30T22:55:50.323Z,100847.88
2023-04-30T22:58:17.691Z,100847.41
2023-04-30T23:00:44.540Z,100846.25
2023-04-30T23:03:11.519Z,100843.13
2023-04-30T23:05:38.280Z,100852.31
2023-04-30T23:08:05.120Z,100843.47
2023-04-30T23:10:31.900Z,100839.03
2023-04-30T23:12:58.980Z,100841.50
2023-04-30T23:15:26.457Z,100838.72
2023-04-30T23:17:54.436Z,100840.03
2023-04-30T23:20:22.740Z,100838.38
2023-04-30T23:22:50.162Z,100838.38
2023-04-30T23:25:17.176Z,100836.72
2023-04-30T23:27:45.225Z,100823.16
2023-04-30T23:30:12.144Z,100825.59
2023-04-30T23:32:38.888Z,100820.84
2023-04-30T23:35:07.829Z,100829.22
2023-04-30T23:37:35.060Z,100817.25
2023-04-30T23:40:02.145Z,100825.59
2023-04-30T23:42:28.817Z,100823.97
2023-04-30T23:44:55.513Z,100819.25
2023-04-30T23:47:22.475Z,100817.59
2023-04-30T23:49:49.262Z,100813.16
2023-04-30T23:52:16.330Z,100817.59
2023-04-30T23:54:43.156Z,100813.97
2023-04-30T23:57:10.328Z,100806.47
2023-04-30T23:59:37.142Z,100804.97
